Time;durP1;ratioP1;P1;durP2;ratioP2;P2;SDS_P1;SDS_P2;PMS_P1;PMS_P2;Temp;Humidity;BMP_temperature;BMP_pressure;BME280_temperature;BME280_humidity;BME280_pressure;Samples;Min_cycle;Max_cycle;Signal;HPM_P1;HPM_P2
2022/06/25 00:00:57;;;;;;;;;;;;;;;17.84;83.31;99504.63;1086156;54;20149;-80
2022/06/25 00:02:06;;;;;;;;;;;;;;;17.87;82.85;99512.28;1086750;54;20427;-81
2022/06/25 00:03:07;;;;;;;;;;;;;;;17.77;83.48;99515.41;1087464;54;19935;-80
2022/06/25 00:05:32;;;;;;;;;;;;;;;17.76;84.04;99518.28;1087786;39;20363;-80
2022/06/25 00:06:42;;;;;;;;;;;;;;;17.84;83.31;99518.13;1089841;39;20316;-80
2022/06/25 00:07:46;;;;;;;;;;;;;;;17.74;83.30;99521.22;1087167;54;20496;-78
2022/06/25 00:09:09;;;;;;;;;;;;;;;17.68;83.65;99523.91;1087728;46;19945;-80
2022/06/25 00:10:11;;;;;;;;;;;;;;;17.74;83.44;99515.81;1087280;54;19945;-81
2022/06/25 00:12:38;;;;;;;;;;;;;;;17.71;83.32;99524.31;1087795;54;19939;-79
2022/06/25 00:13:39;;;;;;;;;;;;;;;17.64;83.12;99522.66;1087813;54;20417;-79
2022/06/25 00:14:40;;;;;;;;;;;;;;;17.68;83.09;99510.38;1088984;46;19930;-79
2022/06/25 00:15:49;;;;;;;;;;;;;;;17.61;83.34;99515.78;1088031;54;19942;-80
2022/06/25 00:16:50;;;;;;;;;;;;;;;17.58;83.39;99519.72;1087920;54;20433;-79
2022/06/25 00:17:58;;;;;;;;;;;;;;;17.58;83.94;99527.00;1087422;54;19934;-78
2022/06/25 00:19:00;;;;;;;;;;;;;;;17.61;83.67;99522.03;1087086;54;19939;-80
2022/06/25 00:20:06;;;;;;;;;;;;;;;17.69;83.46;99526.41;1087363;54;19938;-79
2022/06/25 00:21:07;;;;;;;;;;;;;;;17.79;82.68;99526.00;1086359;54;19962;-79
2022/06/25 00:22:17;;;;;;;;;;;;;;;17.69;82.68;99525.56;1086891;54;19954;-80
2022/06/25 00:23:18;;;;;;;;;;;;;;;17.71;82.78;99532.44;1087027;54;19953;-79
2022/06/25 00:24:22;;;;;;;;;;;;;;;17.77;82.20;99530.78;1086906;54;20421;-79
2022/06/25 00:25:23;;;;;;;;;;;;;;;17.79;81.95;99534.13;1087366;54;19947;-81
2022/06/25 00:26:30;;;;;;;;;;;;;;;17.67;81.85;99535.75;1087056;54;20003;-79
2022/06/25 00:27:31;;;;;;;;;;;;;;;17.62;82.45;99537.19;1088213;54;19946;-79
2022/06/25 00:28:36;;;;;;;;;;;;;;;17.67;82.08;99535.75;1088064;54;19919;-79
2022/06/25 00:29:37;;;;;;;;;;;;;;;17.70;81.83;99540.75;1088161;54;19939;-80
2022/06/25 00:30:42;;;;;;;;;;;;;;;17.72;82.04;99528.69;1087880;54;19949;-79
2022/06/25 00:31:43;;;;;;;;;;;;;;;17.74;82.13;99542.03;1087321;54;19950;-81
2022/06/25 00:32:47;;;;;;;;;;;;;;;17.80;81.43;99530.38;1088760;39;20305;-81
2022/06/25 00:33:50;;;;;;;;;;;;;;;17.75;81.13;99538.28;1087916;54;19951;-81
2022/06/25 00:34:56;;;;;;;;;;;;;;;17.81;81.26;99540.16;1087005;54;19935;-80
2022/06/25 00:35:57;;;;;;;;;;;;;;;17.84;80.33;99539.75;1087001;54;19927;-80
2022/06/25 00:37:01;;;;;;;;;;;;;;;17.81;80.31;99547.41;1086985;54;19947;-78
2022/06/25 00:38:05;;;;;;;;;;;;;;;17.82;80.81;99544.53;1087464;54;19950;-78
2022/06/25 00:40:39;;;;;;;;;;;;;;;17.76;80.14;99546.19;1087561;54;19946;-79
2022/06/25 00:42:00;;;;;;;;;;;;;;;17.69;80.57;99547.19;1087418;54;19939;-80
2022/06/25 00:43:03;;;;;;;;;;;;;;;17.70;80.54;99555.13;1088073;39;20379;-80
2022/06/25 00:44:13;;;;;;;;;;;;;;;17.57;80.60;99557.75;1087844;54;19926;-79
2022/06/25 00:45:17;;;;;;;;;;;;;;;17.68;80.76;99557.19;1087821;54;19934;-78
2022/06/25 00:46:20;;;;;;;;;;;;;;;17.72;80.55;99549.50;1087899;54;19927;-79
2022/06/25 00:49:20;;;;;;;;;;;;;;;17.66;80.65;99558.44;1088604;54;19939;-79
2022/06/25 00:50:23;;;;;;;;;;;;;;;17.63;80.63;99556.94;1088680;54;19927;-80
2022/06/25 00:53:08;;;;;;;;;;;;;;;17.50;80.92;99552.31;1088967;54;19938;-80
2022/06/25 00:54:14;;;;;;;;;;;;;;;17.59;80.30;99551.09;1088607;54;19934;-80
2022/06/25 00:55:20;;;;;;;;;;;;;;;17.68;80.14;99559.03;1088925;46;19999;-79
2022/06/25 00:56:22;;;;;;;;;;;;;;;17.74;80.13;99552.84;1088144;54;19957;-81
2022/06/25 00:57:28;;;;;;;;;;;;;;;17.74;79.54;99547.44;1088419;54;19926;-83
2022/06/25 00:58:31;;;;;;;;;;;;;;;17.74;79.94;99550.94;1088339;54;19973;-80
2022/06/25 00:59:38;;;;;;;;;;;;;;;17.73;80.25;99551.16;1088115;54;19947;-80
2022/06/25 01:00:43;;;;;;;;;;;;;;;17.74;79.48;99550.13;1088345;46;19950;-77
2022/06/25 01:01:47;;;;;;;;;;;;;;;17.76;79.54;99556.13;1087956;54;19994;-78
2022/06/25 01:02:48;;;;;;;;;;;;;;;17.84;79.47;99550.56;1087309;54;19943;-79
2022/06/25 01:03:52;;;;;;;;;;;;;;;17.85;78.50;99554.09;1087126;54;20480;-79
2022/06/25 01:04:53;;;;;;;;;;;;;;;17.88;78.97;99554.50;1086994;54;19946;-78
2022/06/25 01:05:59;;;;;;;;;;;;;;;17.83;78.64;99546.19;1092166;39;20566;-79
2022/06/25 01:07:00;;;;;;;;;;;;;;;17.83;78.82;99551.59;1087994;54;19938;-78
2022/06/25 01:08:06;;;;;;;;;;;;;;;17.68;79.12;99556.34;1089635;39;20388;-82
2022/06/25 01:09:07;;;;;;;;;;;;;;;17.64;79.75;99549.69;1088252;54;19945;-80
2022/06/25 01:10:17;;;;;;;;;;;;;;;17.51;80.13;99550.47;1088527;54;19942;-80
2022/06/25 01:11:18;;;;;;;;;;;;;;;17.50;80.28;99557.72;1090200;39;20608;-79
2022/06/25 01:12:26;;;;;;;;;;;;;;;17.53;80.19;99554.63;1088233;54;19954;-80
2022/06/25 01:13:30;;;;;;;;;;;;;;;17.60;79.78;99552.78;1087835;54;19935;-79
2022/06/25 01:14:33;;;;;;;;;;;;;;;17.54;79.60;99553.59;1088837;54;19939;-80
2022/06/25 01:15:41;;;;;;;;;;;;;;;17.45;79.77;99555.63;1089281;39;20417;-80
2022/06/25 01:16:50;;;;;;;;;;;;;;;17.45;80.27;99554.81;1088259;54;19939;-81
2022/06/25 01:17:52;;;;;;;;;;;;;;;17.53;79.67;99551.94;1087618;54;19947;-81
2022/06/25 01:18:56;;;;;;;;;;;;;;;17.58;79.40;99557.53;1087562;54;19946;-81
2022/06/25 01:19:57;;;;;;;;;;;;;;;17.55;79.87;99549.88;1087687;54;19947;-78
2022/06/25 01:21:04;;;;;;;;;;;;;;;17.57;79.67;99558.56;1087511;54;20543;-78
2022/06/25 01:22:21;;;;;;;;;;;;;;;17.55;79.39;99560.69;1087405;46;19957;-81
2022/06/25 01:23:22;;;;;;;;;;;;;;;17.46;79.58;99559.19;1087526;54;19950;-78
2022/06/25 01:24:26;;;;;;;;;;;;;;;17.48;79.79;99551.69;1088014;54;19927;-81
2022/06/25 01:25:44;;;;;;;;;;;;;;;17.45;79.81;99554.81;1088415;54;20409;-81
2022/06/25 01:26:48;;;;;;;;;;;;;;;17.25;80.58;99558.25;1088476;54;19927;-80
2022/06/25 01:27:52;;;;;;;;;;;;;;;17.33;80.29;99561.81;1088255;54;19971;-79
2022/06/25 01:29:04;;;;;;;;;;;;;;;17.27;80.55;99558.91;1088697;54;19982;-80
2022/06/25 01:31:08;;;;;;;;;;;;;;;17.17;81.03;99563.84;1086628;54;19954;-79
2022/06/25 01:32:10;;;;;;;;;;;;;;;17.20;81.22;99563.41;1086554;54;19938;-78
2022/06/25 01:33:14;;;;;;;;;;;;;;;17.25;81.28;99560.13;1086390;54;19953;-77
2022/06/25 01:34:15;;;;;;;;;;;;;;;17.11;81.55;99560.06;1086595;54;19954;-79
2022/06/25 01:35:18;;;;;;;;;;;;;;;17.23;81.42;99557.63;1086881;54;19942;-78
2022/06/25 01:36:20;;;;;;;;;;;;;;;17.17;81.07;99554.88;1086845;54;20492;-80
2022/06/25 01:37:26;;;;;;;;;;;;;;;17.13;81.80;99555.31;1086709;54;19943;-84
2022/06/25 01:38:27;;;;;;;;;;;;;;;17.07;82.26;99560.66;1086758;54;19949;-79
2022/06/25 01:39:31;;;;;;;;;;;;;;;17.06;82.54;99559.81;1087116;54;20002;-80
2022/06/25 01:40:33;;;;;;;;;;;;;;;17.00;82.55;99556.03;1086818;54;19946;-80
2022/06/25 01:41:37;;;;;;;;;;;;;;;16.94;82.80;99556.84;1086572;54;19957;-80
2022/06/25 01:43:56;;;;;;;;;;;;;;;16.94;83.10;99564.94;1086918;54;20562;-78
2022/06/25 01:44:58;;;;;;;;;;;;;;;16.89;83.55;99566.53;1086846;54;19947;-81
2022/06/25 01:46:01;;;;;;;;;;;;;;;16.96;83.20;99567.44;1087428;54;19957;-81
2022/06/25 01:47:03;;;;;;;;;;;;;;;16.95;82.98;99563.91;1086997;54;20510;-79
2022/06/25 01:48:08;;;;;;;;;;;;;;;16.92;83.40;99563.44;1087318;54;19949;-77
2022/06/25 01:49:09;;;;;;;;;;;;;;;16.94;83.28;99564.94;1087153;54;19951;-79
2022/06/25 01:50:13;;;;;;;;;;;;;;;16.94;82.99;99559.53;1087383;54;19946;-79
2022/06/25 01:51:16;;;;;;;;;;;;;;;17.01;82.70;99559.59;1088011;46;19973;-81
2022/06/25 01:52:20;;;;;;;;;;;;;;;16.92;82.83;99561.56;1086672;54;19970;-79
2022/06/25 01:53:23;;;;;;;;;;;;;;;16.94;83.16;99564.13;1086846;54;19955;-80
2022/06/25 01:54:27;;;;;;;;;;;;;;;16.92;83.06;99566.97;1086888;54;19986;-78
2022/06/25 01:55:28;;;;;;;;;;;;;;;16.95;82.94;99566.59;1087457;54;19935;-80
2022/06/25 01:56:32;;;;;;;;;;;;;;;16.91;83.09;99570.69;1086919;54;20452;-79
2022/06/25 01:57:33;;;;;;;;;;;;;;;16.96;83.18;99567.44;1087008;54;19950;-78
2022/06/25 01:58:38;;;;;;;;;;;;;;;17.00;82.84;99568.72;1087210;54;20456;-79
2022/06/25 01:59:39;;;;;;;;;;;;;;;17.08;82.09;99570.44;1087100;54;19975;-79
2022/06/25 02:00:43;;;;;;;;;;;;;;;17.13;81.50;99568.81;1087798;31;20518;-80
2022/06/25 02:01:44;;;;;;;;;;;;;;;17.20;81.35;99571.50;1086588;54;19975;-81
2022/06/25 02:02:48;;;;;;;;;;;;;;;17.25;80.83;99577.16;1086527;54;19951;-83
2022/06/25 02:03:52;;;;;;;;;;;;;;;17.29;80.46;99570.31;1087004;54;19946;-81
2022/06/25 02:04:53;;;;;;;;;;;;;;;17.33;80.36;99570.78;1087416;54;19935;-81
2022/06/25 02:05:59;;;;;;;;;;;;;;;17.37;80.40;99569.31;1087576;54;19943;-81
2022/06/25 02:07:01;;;;;;;;;;;;;;;17.39;79.87;99569.97;1088174;54;19943;-85
2022/06/25 02:08:05;;;;;;;;;;;;;;;17.31;80.31;99575.53;1088390;54;19949;-85
2022/06/25 02:09:11;;;;;;;;;;;;;;;17.37;80.10;99573.91;1088274;54;19953;-83
2022/06/25 02:10:12;;;;;;;;;;;;;;;17.40;79.87;99574.34;1088555;46;19943;-80
2022/06/25 02:11:16;;;;;;;;;;;;;;;17.42;79.65;99572.28;1088048;54;19958;-82
2022/06/25 02:12:17;;;;;;;;;;;;;;;17.46;79.75;99586.22;1087612;54;19942;-81
2022/06/25 02:13:21;;;;;;;;;;;;;;;17.44;79.38;99580.16;1087905;54;19954;-81
2022/06/25 02:14:22;;;;;;;;;;;;;;;17.47;79.68;99574.38;1087746;54;19946;-81
2022/06/25 02:15:26;;;;;;;;;;;;;;;17.48;79.48;99580.59;1087692;54;19962;-82
2022/06/25 02:16:29;;;;;;;;;;;;;;;17.50;79.85;99586.63;1087781;54;19992;-80
2022/06/25 02:17:30;;;;;;;;;;;;;;;17.40;80.07;99585.13;1087314;54;19938;-82
2022/06/25 02:18:34;;;;;;;;;;;;;;;17.45;79.55;99587.25;1087334;54;19950;-80
2022/06/25 02:19:35;;;;;;;;;;;;;;;17.43;79.14;99582.00;1087038;54;19934;-82
2022/06/25 02:20:39;;;;;;;;;;;;;;;17.30;79.39;99588.19;1087230;54;19957;-79
2022/06/25 02:21:40;;;;;;;;;;;;;;;17.29;79.74;99588.41;1087563;39;20410;-82
2022/06/25 02:22:44;;;;;;;;;;;;;;;17.38;79.40;99586.38;1086653;54;19958;-82
2022/06/25 02:23:48;;;;;;;;;;;;;;;17.38;79.02;99583.69;1087711;54;19950;-80
2022/06/25 02:24:53;;;;;;;;;;;;;;;17.34;79.31;99595.91;1087841;54;19923;-80
2022/06/25 02:25:56;;;;;;;;;;;;;;;17.27;79.33;99591.31;1088116;39;20405;-81
2022/06/25 02:26:58;;;;;;;;;;;;;;;17.23;79.61;99584.63;1087708;54;19950;-82
2022/06/25 02:28:01;;;;;;;;;;;;;;;17.30;79.68;99595.47;1087534;54;19938;-80
2022/06/25 02:29:05;;;;;;;;;;;;;;;17.35;79.18;99579.50;1087462;54;19942;-79
2022/06/25 02:30:07;;;;;;;;;;;;;;;17.37;78.91;99588.22;1087051;46;19970;-82
2022/06/25 02:31:12;;;;;;;;;;;;;;;17.30;79.08;99585.50;1087328;54;19942;-83
2022/06/25 02:32:13;;;;;;;;;;;;;;;17.22;79.39;99590.25;1087590;54;19990;-80
2022/06/25 02:33:19;;;;;;;;;;;;;;;17.20;79.19;99590.41;1087474;54;19950;-80
2022/06/25 02:34:20;;;;;;;;;;;;;;;17.19;79.63;99590.63;1087550;54;19950;-80
2022/06/25 02:35:24;;;;;;;;;;;;;;;17.22;79.46;99585.66;1089049;39;20393;-83
2022/06/25 02:36:25;;;;;;;;;;;;;;;17.15;79.70;99591.03;1087576;54;20054;-81
2022/06/25 02:37:29;;;;;;;;;;;;;;;17.21;79.64;99585.88;1087427;54;19950;-82
2022/06/25 02:38:30;;;;;;;;;;;;;;;17.16;79.75;99594.56;1087640;54;19923;-83
2022/06/25 02:39:33;;;;;;;;;;;;;;;17.13;80.01;99594.97;1089518;31;20516;-82
2022/06/25 02:40:37;;;;;;;;;;;;;;;17.09;80.20;99589.13;1087263;54;19973;-80
2022/06/25 02:41:41;;;;;;;;;;;;;;;17.05;79.79;99592.41;1087817;39;20392;-81
2022/06/25 02:42:42;;;;;;;;;;;;;;;17.05;80.14;99587.03;1086902;54;19946;-80
2022/06/25 02:43:46;;;;;;;;;;;;;;;17.07;80.02;99590.34;1087510;54;20006;-84
2022/06/25 02:44:47;;;;;;;;;;;;;;;17.08;80.09;99584.75;1087892;54;19947;-78
2022/06/25 02:45:51;;;;;;;;;;;;;;;17.01;80.03;99594.69;1087893;54;19998;-79
2022/06/25 02:46:52;;;;;;;;;;;;;;;17.07;79.69;99585.78;1087939;54;19927;-79
2022/06/25 02:47:56;;;;;;;;;;;;;;;16.96;79.89;99592.56;1087934;54;20492;-80
2022/06/25 02:48:57;;;;;;;;;;;;;;;16.93;80.33;99587.56;1087651;54;19947;-80
2022/06/25 02:50:01;;;;;;;;;;;;;;;16.90;80.44;99592.50;1088233;54;20038;-79
2022/06/25 02:51:05;;;;;;;;;;;;;;;16.85;80.62;99593.09;1088010;54;19945;-82
2022/06/25 02:52:06;;;;;;;;;;;;;;;16.82;80.88;99598.88;1088024;54;19939;-80
2022/06/25 02:53:10;;;;;;;;;;;;;;;16.87;80.77;99596.44;1089170;46;19939;-80
2022/06/25 02:54:11;;;;;;;;;;;;;;;16.76;80.87;99603.22;1087771;54;19947;-79
2022/06/25 02:55:15;;;;;;;;;;;;;;;16.75;81.21;99595.28;1087723;54;19950;-79
2022/06/25 02:58:55;;;;;;;;;;;;;;;16.81;80.85;99600.75;1087706;54;19947;-78
2022/06/25 02:59:59;;;;;;;;;;;;;;;16.83;81.23;99601.41;1087515;54;19950;-79
2022/06/25 03:01:00;;;;;;;;;;;;;;;16.87;80.54;99606.38;1090108;39;20364;-78
2022/06/25 03:02:04;;;;;;;;;;;;;;;16.87;80.94;99607.22;1087539;54;19950;-82
2022/06/25 03:03:06;;;;;;;;;;;;;;;16.88;80.78;99600.81;1087770;54;19946;-82
2022/06/25 03:04:10;;;;;;;;;;;;;;;16.94;80.21;99613.53;1087752;46;20465;-79
2022/06/25 03:05:11;;;;;;;;;;;;;;;17.00;79.99;99601.94;1087558;54;19974;-78
2022/06/25 03:06:15;;;;;;;;;;;;;;;16.95;80.33;99609.00;1087618;54;20453;-79
2022/06/25 03:07:17;;;;;;;;;;;;;;;17.00;79.66;99601.13;1087374;54;19946;-79
2022/06/25 03:08:21;;;;;;;;;;;;;;;17.04;79.25;99601.53;1087437;54;19951;-79
2022/06/25 03:09:23;;;;;;;;;;;;;;;17.10;79.38;99606.16;1087496;54;19973;-80
2022/06/25 03:10:27;;;;;;;;;;;;;;;17.08;78.98;99605.53;1093567;39;20399;-81
2022/06/25 03:11:30;;;;;;;;;;;;;;;17.00;79.46;99601.94;1087551;54;19958;-80
2022/06/25 03:12:35;;;;;;;;;;;;;;;16.95;79.66;99607.09;1087862;54;19974;-83
2022/06/25 03:13:36;;;;;;;;;;;;;;;16.91;79.51;99604.97;1087407;54;19950;-80
2022/06/25 03:14:40;;;;;;;;;;;;;;;16.93;79.59;99606.47;1087439;54;19946;-81
2022/06/25 03:15:41;;;;;;;;;;;;;;;16.99;79.60;99610.25;1086669;54;19953;-79
2022/06/25 03:16:46;;;;;;;;;;;;;;;16.98;79.76;99603.16;1086613;54;19947;-80
2022/06/25 03:17:47;;;;;;;;;;;;;;;16.94;79.63;99612.72;1087418;54;19947;-80
2022/06/25 03:18:51;;;;;;;;;;;;;;;16.90;79.96;99601.44;1087558;54;20665;-79
2022/06/25 03:19:52;;;;;;;;;;;;;;;16.96;79.86;99611.47;1086950;54;19947;-81
2022/06/25 03:20:56;;;;;;;;;;;;;;;17.06;79.18;99610.28;1086973;54;19950;-83
2022/06/25 03:21:57;;;;;;;;;;;;;;;17.05;78.90;99605.91;1086440;54;19947;-81
2022/06/25 03:23:01;;;;;;;;;;;;;;;17.09;78.75;99604.50;1087132;54;19962;-83
2022/06/25 03:24:03;;;;;;;;;;;;;;;17.06;79.05;99605.72;1087622;54;19951;-81
2022/06/25 03:25:07;;;;;;;;;;;;;;;16.99;79.13;99607.53;1088975;39;20372;-82
2022/06/25 03:26:08;;;;;;;;;;;;;;;16.89;79.42;99613.28;1087917;54;19950;-79
2022/06/25 03:27:14;;;;;;;;;;;;;;;16.93;79.89;99605.63;1087503;54;19990;-81
2022/06/25 03:28:16;;;;;;;;;;;;;;;16.99;79.37;99610.25;1087313;54;19931;-79
2022/06/25 03:29:19;;;;;;;;;;;;;;;16.93;79.33;99609.16;1087960;46;20622;-77
2022/06/25 03:30:21;;;;;;;;;;;;;;;16.97;78.84;99613.16;1087402;54;19957;-77
2022/06/25 03:31:25;;;;;;;;;;;;;;;16.94;79.52;99615.41;1087346;54;19958;-78
2022/06/25 03:32:26;;;;;;;;;;;;;;;16.95;79.38;99611.69;1086437;47;20798;-78
2022/06/25 03:33:30;;;;;;;;;;;;;;;17.06;79.08;99613.00;1086880;54;19986;-78
2022/06/25 03:34:31;;;;;;;;;;;;;;;17.04;78.76;99612.34;1088455;46;19966;-78
2022/06/25 03:35:34;;;;;;;;;;;;;;;17.08;78.86;99616.34;1086200;54;19950;-78
2022/06/25 03:36:38;;;;;;;;;;;;;;;17.03;79.00;99622.34;1087480;39;20356;-79
2022/06/25 03:37:39;;;;;;;;;;;;;;;17.05;79.04;99614.03;1086479;54;19946;-78
2022/06/25 03:38:43;;;;;;;;;;;;;;;17.05;78.77;99614.03;1086771;54;19958;-79
2022/06/25 03:39:44;;;;;;;;;;;;;;;17.09;78.91;99610.72;1086957;54;19946;-78
2022/06/25 03:40:48;;;;;;;;;;;;;;;17.08;78.70;99621.75;1086694;54;19990;-80
2022/06/25 03:41:49;;;;;;;;;;;;;;;17.01;78.76;99621.69;1087706;54;19946;-81
2022/06/25 03:42:56;;;;;;;;;;;;;;;17.08;78.59;99625.25;1087604;54;19951;-78
2022/06/25 03:43:57;;;;;;;;;;;;;;;17.11;78.73;99618.63;1087701;54;19951;-78
2022/06/25 03:45:00;;;;;;;;;;;;;;;17.17;78.46;99619.69;1087323;54;19939;-78
2022/06/25 03:46:02;;;;;;;;;;;;;;;17.18;78.13;99621.38;1087862;54;19942;-78
2022/06/25 03:47:06;;;;;;;;;;;;;;;17.20;78.05;99628.22;1087989;54;19958;-81
2022/06/25 03:48:08;;;;;;;;;;;;;;;17.23;78.46;99621.63;1087523;54;19994;-78
2022/06/25 03:49:11;;;;;;;;;;;;;;;17.24;78.02;99617.88;1088856;39;20408;-79
2022/06/25 03:50:12;;;;;;;;;;;;;;;17.27;77.71;99621.03;1087533;54;19951;-79
2022/06/25 03:51:16;;;;;;;;;;;;;;;17.30;77.41;99628.72;1086407;54;20504;-79
2022/06/25 03:52:20;;;;;;;;;;;;;;;17.24;77.84;99626.00;1087994;54;19957;-81
2022/06/25 03:53:21;;;;;;;;;;;;;;;17.26;78.06;99622.06;1088327;54;19942;-82
2022/06/25 03:54:25;;;;;;;;;;;;;;;17.26;77.50;99621.22;1088043;54;20437;-79
2022/06/25 03:55:26;;;;;;;;;;;;;;;17.28;77.47;99614.59;1089803;39;20341;-78
2022/06/25 03:56:30;;;;;;;;;;;;;;;17.23;77.34;99622.44;1087607;54;19957;-78
2022/06/25 03:57:31;;;;;;;;;;;;;;;17.24;77.25;99621.41;1087594;54;19946;-81
2022/06/25 03:58:38;;;;;;;;;;;;;;;17.21;77.55;99623.69;1087291;54;19953;-78
2022/06/25 03:59:39;;;;;;;;;;;;;;;17.20;77.43;99622.84;1086437;54;19958;-78
2022/06/25 04:00:43;;;;;;;;;;;;;;;17.25;77.51;99625.78;1087164;54;19966;-78
2022/06/25 04:01:44;;;;;;;;;;;;;;;17.27;77.32;99618.31;1087310;54;19939;-79
2022/06/25 04:02:47;;;;;;;;;;;;;;;17.28;77.28;99614.59;1087089;54;19959;-78
2022/06/25 04:03:49;;;;;;;;;;;;;;;17.25;77.16;99619.53;1086712;54;19946;-78
2022/06/25 04:04:52;;;;;;;;;;;;;;;17.17;77.91;99623.25;1087163;54;20448;-79
2022/06/25 04:05:53;;;;;;;;;;;;;;;17.15;78.06;99611.81;1086534;54;19984;-78
2022/06/25 04:06:57;;;;;;;;;;;;;;;17.19;77.84;99617.63;1087197;54;19946;-78
2022/06/25 04:07:58;;;;;;;;;;;;;;;17.22;77.69;99619.94;1086466;54;19950;-77
2022/06/25 04:09:02;;;;;;;;;;;;;;;17.23;77.46;99625.16;1087006;54;20485;-78
2022/06/25 04:10:04;;;;;;;;;;;;;;;17.23;77.67;99619.75;1087404;54;19958;-78
2022/06/25 04:11:08;;;;;;;;;;;;;;;17.23;77.84;99617.03;1087608;54;20477;-77
2022/06/25 04:12:09;;;;;;;;;;;;;;;17.28;77.60;99628.09;1087120;54;19926;-77
2022/06/25 04:13:13;;;;;;;;;;;;;;;17.31;77.46;99618.75;1087121;54;20046;-79
2022/06/25 04:14:16;;;;;;;;;;;;;;;17.31;78.03;99624.16;1087379;54;19973;-80
2022/06/25 04:15:20;;;;;;;;;;;;;;;17.25;78.42;99620.38;1087902;54;19997;-78
2022/06/25 04:16:21;;;;;;;;;;;;;;;17.24;78.47;99617.88;1088701;39;20617;-78
2022/06/25 04:17:26;;;;;;;;;;;;;;;17.27;78.16;99628.28;1087998;54;19946;-79
2022/06/25 04:18:27;;;;;;;;;;;;;;;17.30;77.78;99628.72;1090075;39;20746;-79
2022/06/25 04:19:30;;;;;;;;;;;;;;;17.33;77.67;99632.91;1087591;54;20084;-78
2022/06/25 04:20:32;;;;;;;;;;;;;;;17.36;77.56;99637.88;1087608;54;19947;-78
2022/06/25 04:21:36;;;;;;;;;;;;;;;17.33;77.17;99637.47;1087216;54;19942;-77
2022/06/25 04:22:37;;;;;;;;;;;;;;;17.31;77.66;99630.38;1087487;46;20667;-78
2022/06/25 04:23:41;;;;;;;;;;;;;;;17.34;77.55;99639.13;1087622;54;20587;-77
2022/06/25 04:24:42;;;;;;;;;;;;;;;17.37;77.59;99639.56;1087215;54;19973;-80
2022/06/25 04:25:46;;;;;;;;;;;;;;;17.27;77.82;99641.78;1087467;54;19946;-77
2022/06/25 04:26:47;;;;;;;;;;;;;;;17.34;77.67;99637.25;1087053;54;19975;-78
2022/06/25 04:29:08;;;;;;;;;;;;;;;17.39;77.07;99637.50;1087691;54;20425;-79
2022/06/25 04:30:12;;;;;;;;;;;;;;;17.39;76.92;99642.06;1088067;54;20031;-81
2022/06/25 04:31:13;;;;;;;;;;;;;;;17.36;76.86;99637.88;1089215;39;20571;-81
2022/06/25 04:32:17;;;;;;;;;;;;;;;17.44;77.38;99645.00;1088132;54;19957;-80
2022/06/25 04:33:18;;;;;;;;;;;;;;;17.51;77.40;99640.47;1087971;54;19950;-80
2022/06/25 04:34:22;;;;;;;;;;;;;;;17.55;77.14;99640.91;1089877;39;20349;-78
2022/06/25 04:35:23;;;;;;;;;;;;;;;17.59;77.27;99636.78;1086977;54;19942;-78
2022/06/25 04:36:27;;;;;;;;;;;;;;;17.60;76.93;99633.84;1086972;54;19951;-78
2022/06/25 04:37:28;;;;;;;;;;;;;;;17.66;76.58;99642.22;1086769;54;20068;-78
2022/06/25 04:38:31;;;;;;;;;;;;;;;17.70;76.52;99644.31;1087005;54;19947;-78
2022/06/25 04:39:34;;;;;;;;;;;;;;;17.68;76.75;99640.13;1087187;54;19953;-78
2022/06/25 04:40:37;;;;;;;;;;;;;;;17.62;76.29;99641.75;1087096;54;19946;-79
2022/06/25 04:41:41;;;;;;;;;;;;;;;17.60;76.99;99641.16;1086257;54;19946;-78
2022/06/25 04:42:42;;;;;;;;;;;;;;;17.54;76.80;99640.06;1086072;54;19951;-78
2022/06/25 04:43:46;;;;;;;;;;;;;;;17.53;76.88;99645.66;1086590;54;20024;-78
2022/06/25 04:44:50;;;;;;;;;;;;;;;17.51;77.22;99645.88;1086586;46;19953;-79
2022/06/25 04:45:54;;;;;;;;;;;;;;;17.52;76.76;99647.53;1086499;54;19958;-78
2022/06/25 04:46:57;;;;;;;;;;;;;;;17.56;76.85;99653.38;1086773;54;19947;-79
2022/06/25 04:47:59;;;;;;;;;;;;;;;17.59;76.94;99648.41;1086547;54;19946;-78
2022/06/25 04:49:03;;;;;;;;;;;;;;;17.62;76.56;99647.16;1085756;54;20031;-79
2022/06/25 04:50:06;;;;;;;;;;;;;;;17.58;76.61;99645.91;1086635;47;19953;-78
2022/06/25 04:51:10;;;;;;;;;;;;;;;17.52;76.55;99652.13;1088865;39;20560;-78
2022/06/25 04:52:11;;;;;;;;;;;;;;;17.61;76.79;99651.75;1086669;54;19946;-78
2022/06/25 04:53:15;;;;;;;;;;;;;;;17.62;75.31;99649.84;1086921;54;19939;-79
2022/06/25 04:54:16;;;;;;;;;;;;;;;17.68;75.76;99653.63;1086989;54;19939;-79
2022/06/25 04:55:20;;;;;;;;;;;;;;;17.67;75.99;99658.22;1087030;54;19959;-79
2022/06/25 04:56:22;;;;;;;;;;;;;;;17.70;76.31;99662.38;1087340;54;19951;-79
2022/06/25 04:57:25;;;;;;;;;;;;;;;17.77;76.39;99663.25;1086931;54;19958;-78
2022/06/25 04:58:27;;;;;;;;;;;;;;;17.82;75.65;99657.22;1087019;54;19945;-78
2022/06/25 04:59:30;;;;;;;;;;;;;;;17.88;75.87;99656.44;1086399;54;19951;-79
2022/06/25 05:00:32;;;;;;;;;;;;;;;17.93;75.41;99662.91;1086563;54;19946;-77
2022/06/25 05:01:38;;;;;;;;;;;;;;;17.99;75.12;99664.00;1087107;54;20018;-78
2022/06/25 05:02:39;;;;;;;;;;;;;;;18.00;74.45;99668.34;1087006;54;19942;-77
2022/06/25 05:03:43;;;;;;;;;;;;;;;17.99;74.67;99664.00;1086926;54;19945;-79
2022/06/25 05:04:44;;;;;;;;;;;;;;;18.00;73.97;99664.81;1086197;54;19946;-77
2022/06/25 05:05:48;;;;;;;;;;;;;;;18.07;73.85;99671.09;1086614;54;19973;-78
2022/06/25 05:06:49;;;;;;;;;;;;;;;18.02;73.47;99670.88;1086619;54;19957;-77
2022/06/25 05:07:53;;;;;;;;;;;;;;;17.98;73.11;99672.28;1086141;54;19939;-79
2022/06/25 05:08:54;;;;;;;;;;;;;;;18.03;73.16;99675.25;1086298;47;20473;-78
2022/06/25 05:09:58;;;;;;;;;;;;;;;18.07;73.00;99680.03;1085456;54;19947;-77
2022/06/25 05:10:59;;;;;;;;;;;;;;;18.13;72.99;99678.41;1085487;54;19951;-79
2022/06/25 05:12:03;;;;;;;;;;;;;;;18.17;72.67;99682.34;1086396;39;20332;-77
2022/06/25 05:13:13;;;;;;;;;;;;;;;18.19;72.69;99676.72;1086290;54;19954;-79
2022/06/25 05:14:17;;;;;;;;;;;;;;;18.20;72.67;99678.41;1086856;54;19995;-79
2022/06/25 05:15:18;;;;;;;;;;;;;;;18.13;72.52;99678.41;1087180;54;19947;-78
2022/06/25 05:16:22;;;;;;;;;;;;;;;18.05;73.31;99684.81;1087426;54;20792;-79
2022/06/25 05:17:26;;;;;;;;;;;;;;;17.96;73.27;99680.63;1088236;54;19926;-77
2022/06/25 05:18:29;;;;;;;;;;;;;;;18.00;73.43;99686.47;1087498;54;19927;-77
2022/06/25 05:19:31;;;;;;;;;;;;;;;18.04;73.15;99682.31;1086248;54;19934;-79
2022/06/25 05:20:34;;;;;;;;;;;;;;;18.14;72.97;99688.16;1087640;54;20015;-78
2022/06/25 05:21:36;;;;;;;;;;;;;;;18.21;72.33;99675.50;1088034;54;19942;-77
2022/06/25 05:22:39;;;;;;;;;;;;;;;18.27;72.31;99678.41;1087951;54;20551;-79
2022/06/25 05:23:43;;;;;;;;;;;;;;;18.26;72.15;99685.72;1088013;54;19946;-78
2022/06/25 05:24:44;;;;;;;;;;;;;;;18.15;72.64;99679.00;1088011;54;19938;-78
2022/06/25 05:25:49;;;;;;;;;;;;;;;18.14;72.74;99673.81;1087978;54;19943;-81
2022/06/25 05:26:50;;;;;;;;;;;;;;;18.07;73.06;99681.91;1087925;54;19942;-78
2022/06/25 05:27:53;;;;;;;;;;;;;;;18.20;72.54;99675.69;1088032;54;19942;-78
2022/06/25 05:28:57;;;;;;;;;;;;;;;18.24;72.04;99680.50;1087620;54;19947;-83
2022/06/25 05:29:58;;;;;;;;;;;;;;;18.13;72.49;99683.81;1086927;54;19947;-83
2022/06/25 05:31:03;;;;;;;;;;;;;;;18.12;72.73;99682.16;1086850;54;19922;-83
2022/06/25 05:32:05;;;;;;;;;;;;;;;18.14;72.55;99681.94;1087650;54;19943;-78
2022/06/25 05:33:11;;;;;;;;;;;;;;;18.20;72.32;99681.94;1087431;54;19943;-82
2022/06/25 05:34:13;;;;;;;;;;;;;;;18.24;72.38;99688.59;1088210;54;19949;-79
2022/06/25 05:35:18;;;;;;;;;;;;;;;18.24;72.26;99683.19;1088074;54;19935;-81
2022/06/25 05:36:22;;;;;;;;;;;;;;;18.11;72.70;99683.19;1088140;54;19962;-78
2022/06/25 05:37:24;;;;;;;;;;;;;;;18.24;72.37;99688.59;1089674;46;19942;-83
2022/06/25 05:38:28;;;;;;;;;;;;;;;18.32;72.01;99690.31;1089772;46;19946;-77
2022/06/25 05:39:29;;;;;;;;;;;;;;;18.36;71.62;99686.16;1087557;54;19950;-77
2022/06/25 05:40:33;;;;;;;;;;;;;;;18.38;71.58;99683.25;1086446;54;20507;-78
2022/06/25 05:41:34;;;;;;;;;;;;;;;18.47;71.44;99684.72;1087405;54;19998;-77
2022/06/25 05:42:38;;;;;;;;;;;;;;;18.51;71.23;99682.44;1094053;31;20441;-79
2022/06/25 05:43:40;;;;;;;;;;;;;;;18.54;71.33;99677.44;1090218;46;19942;-79
2022/06/25 05:44:44;;;;;;;;;;;;;;;18.59;71.18;99678.69;1088306;54;19950;-78